sensor_id;sensor_type;location;lat;lon;timestamp;P1;durP1;ratioP1;P2;durP2;ratioP2
13973;SDS011;7060;43.770;4.008;2022-08-01T00:00:11;8.27;;;3.53;;
13973;SDS011;7060;43.770;4.008;2022-08-01T00:02:40;6.70;;;3.47;;
13973;SDS011;7060;43.770;4.008;2022-08-01T00:05:09;4.13;;;3.00;;
13973;SDS011;7060;43.770;4.008;2022-08-01T00:07:39;5.33;;;3.37;;
13973;SDS011;7060;43.770;4.008;2022-08-01T00:10:08;4.47;;;3.60;;
13973;SDS011;7060;43.770;4.008;2022-08-01T00:12:39;3.97;;;3.23;;
13973;SDS011;7060;43.770;4.008;2022-08-01T00:15:13;4.07;;;3.00;;
13973;SDS011;7060;43.770;4.008;2022-08-01T00:17:43;5.23;;;3.23;;
13973;SDS011;7060;43.770;4.008;2022-08-01T00:20:13;5.40;;;3.10;;
13973;SDS011;7060;43.770;4.008;2022-08-01T00:22:42;4.60;;;3.17;;
13973;SDS011;7060;43.770;4.008;2022-08-01T00:25:11;4.43;;;3.10;;
13973;SDS011;7060;43.770;4.008;2022-08-01T00:27:42;4.27;;;3.70;;
13973;SDS011;7060;43.770;4.008;2022-08-01T00:30:13;5.17;;;3.80;;
13973;SDS011;7060;43.770;4.008;2022-08-01T00:32:42;4.03;;;3.47;;
13973;SDS011;7060;43.770;4.008;2022-08-01T00:35:11;4.37;;;3.10;;
13973;SDS011;7060;43.770;4.008;2022-08-01T00:37:40;3.43;;;2.97;;
13973;SDS011;7060;43.770;4.008;2022-08-01T00:40:09;4.67;;;3.37;;
13973;SDS011;7060;43.770;4.008;2022-08-01T00:42:38;6.33;;;3.10;;
13973;SDS011;7060;43.770;4.008;2022-08-01T00:45:11;6.23;;;2.93;;
13973;SDS011;7060;43.770;4.008;2022-08-01T00:47:40;3.33;;;2.53;;
13973;SDS011;7060;43.770;4.008;2022-08-01T00:50:10;6.10;;;2.80;;
13973;SDS011;7060;43.770;4.008;2022-08-01T00:52:39;4.17;;;2.80;;
13973;SDS011;7060;43.770;4.008;2022-08-01T00:55:17;3.57;;;2.83;;
13973;SDS011;7060;43.770;4.008;2022-08-01T00:57:47;7.63;;;3.10;;
13973;SDS011;7060;43.770;4.008;2022-08-01T01:00:32;6.73;;;2.97;;
13973;SDS011;7060;43.770;4.008;2022-08-01T01:03:20;4.77;;;2.97;;
13973;SDS011;7060;43.770;4.008;2022-08-01T01:06:13;3.40;;;2.80;;
13973;SDS011;7060;43.770;4.008;2022-08-01T01:09:12;3.87;;;3.43;;
13973;SDS011;7060;43.770;4.008;2022-08-01T01:11:58;3.73;;;2.83;;
13973;SDS011;7060;43.770;4.008;2022-08-01T01:14:36;4.33;;;3.17;;
13973;SDS011;7060;43.770;4.008;2022-08-01T01:17:15;4.17;;;3.33;;
13973;SDS011;7060;43.770;4.008;2022-08-01T01:20:08;4.70;;;2.60;;
13973;SDS011;7060;43.770;4.008;2022-08-01T01:22:50;4.33;;;2.80;;
13973;SDS011;7060;43.770;4.008;2022-08-01T01:28:32;2.50;;;2.10;;
13973;SDS011;7060;43.770;4.008;2022-08-01T01:31:05;3.07;;;1.97;;
13973;SDS011;7060;43.770;4.008;2022-08-01T01:33:37;1.50;;;1.40;;
13973;SDS011;7060;43.770;4.008;2022-08-01T01:36:13;1.50;;;1.40;;
13973;SDS011;7060;43.770;4.008;2022-08-01T01:38:45;1.90;;;1.53;;
13973;SDS011;7060;43.770;4.008;2022-08-01T01:41:15;2.77;;;1.67;;
13973;SDS011;7060;43.770;4.008;2022-08-01T01:43:45;2.00;;;1.40;;
13973;SDS011;7060;43.770;4.008;2022-08-01T01:46:18;2.70;;;1.40;;
13973;SDS011;7060;43.770;4.008;2022-08-01T01:48:54;4.33;;;1.47;;
13973;SDS011;7060;43.770;4.008;2022-08-01T01:51:25;5.17;;;1.23;;
13973;SDS011;7060;43.770;4.008;2022-08-01T01:53:55;1.73;;;1.10;;
13973;SDS011;7060;43.770;4.008;2022-08-01T01:56:26;3.40;;;1.23;;
13973;SDS011;7060;43.770;4.008;2022-08-01T01:58:58;1.77;;;1.50;;
13973;SDS011;7060;43.770;4.008;2022-08-01T02:01:31;2.17;;;1.90;;
13973;SDS011;7060;43.770;4.008;2022-08-01T02:04:22;1.90;;;1.10;;
13973;SDS011;7060;43.770;4.008;2022-08-01T02:06:55;1.60;;;1.10;;
13973;SDS011;7060;43.770;4.008;2022-08-01T02:09:25;3.37;;;1.33;;
13973;SDS011;7060;43.770;4.008;2022-08-01T02:11:56;9.23;;;1.43;;
13973;SDS011;7060;43.770;4.008;2022-08-01T02:14:35;1.43;;;1.23;;
13973;SDS011;7060;43.770;4.008;2022-08-01T02:17:08;1.50;;;1.10;;
13973;SDS011;7060;43.770;4.008;2022-08-01T02:19:39;1.83;;;1.23;;
13973;SDS011;7060;43.770;4.008;2022-08-01T02:22:10;3.93;;;0.90;;
13973;SDS011;7060;43.770;4.008;2022-08-01T02:24:43;1.80;;;0.93;;
13973;SDS011;7060;43.770;4.008;2022-08-01T02:27:21;1.80;;;1.07;;
13973;SDS011;7060;43.770;4.008;2022-08-01T02:29:56;3.57;;;1.30;;
13973;SDS011;7060;43.770;4.008;2022-08-01T02:32:30;2.70;;;1.07;;
13973;SDS011;7060;43.770;4.008;2022-08-01T02:35:00;3.60;;;1.00;;
13973;SDS011;7060;43.770;4.008;2022-08-01T02:37:31;0.97;;;0.87;;
13973;SDS011;7060;43.770;4.008;2022-08-01T02:40:10;4.73;;;0.93;;
13973;SDS011;7060;43.770;4.008;2022-08-01T02:42:42;2.20;;;1.20;;
13973;SDS011;7060;43.770;4.008;2022-08-01T02:45:14;4.07;;;1.63;;
13973;SDS011;7060;43.770;4.008;2022-08-01T02:47:47;8.07;;;1.45;;
13973;SDS011;7060;43.770;4.008;2022-08-01T02:50:18;1.55;;;0.90;;
13973;SDS011;7060;43.770;4.008;2022-08-01T02:52:48;3.47;;;1.13;;
13973;SDS011;7060;43.770;4.008;2022-08-01T02:55:19;1.73;;;1.00;;
13973;SDS011;7060;43.770;4.008;2022-08-01T02:57:49;4.43;;;1.60;;
13973;SDS011;7060;43.770;4.008;2022-08-01T03:00:26;1.73;;;1.10;;
13973;SDS011;7060;43.770;4.008;2022-08-01T03:02:57;1.13;;;0.93;;
13973;SDS011;7060;43.770;4.008;2022-08-01T03:05:29;1.17;;;0.90;;
13973;SDS011;7060;43.770;4.008;2022-08-01T03:08:01;1.08;;;0.90;;
13973;SDS011;7060;43.770;4.008;2022-08-01T03:10:38;2.88;;;1.33;;
13973;SDS011;7060;43.770;4.008;2022-08-01T03:13:09;2.10;;;1.00;;
13973;SDS011;7060;43.770;4.008;2022-08-01T03:15:39;4.72;;;0.90;;
13973;SDS011;7060;43.770;4.008;2022-08-01T03:18:11;1.38;;;0.98;;
13973;SDS011;7060;43.770;4.008;2022-08-01T03:20:43;2.08;;;0.95;;
13973;SDS011;7060;43.770;4.008;2022-08-01T03:23:14;2.22;;;0.95;;
13973;SDS011;7060;43.770;4.008;2022-08-01T03:25:47;7.68;;;0.90;;
13973;SDS011;7060;43.770;4.008;2022-08-01T03:28:19;1.90;;;0.90;;
13973;SDS011;7060;43.770;4.008;2022-08-01T03:30:55;1.88;;;1.08;;
13973;SDS011;7060;43.770;4.008;2022-08-01T03:33:28;1.27;;;0.90;;
13973;SDS011;7060;43.770;4.008;2022-08-01T03:35:57;2.13;;;1.00;;
13973;SDS011;7060;43.770;4.008;2022-08-01T03:38:30;1.85;;;1.13;;
13973;SDS011;7060;43.770;4.008;2022-08-01T03:41:05;1.00;;;0.80;;
13973;SDS011;7060;43.770;4.008;2022-08-01T03:43:41;1.65;;;0.93;;
13973;SDS011;7060;43.770;4.008;2022-08-01T03:46:17;1.00;;;0.90;;
13973;SDS011;7060;43.770;4.008;2022-08-01T03:48:52;1.40;;;0.90;;
13973;SDS011;7060;43.770;4.008;2022-08-01T03:51:27;1.20;;;0.90;;
13973;SDS011;7060;43.770;4.008;2022-08-01T03:53:57;1.08;;;0.80;;
13973;SDS011;7060;43.770;4.008;2022-08-01T03:56:29;1.00;;;0.90;;
13973;SDS011;7060;43.770;4.008;2022-08-01T03:58:59;2.40;;;1.10;;
13973;SDS011;7060;43.770;4.008;2022-08-01T04:01:31;2.08;;;0.85;;
13973;SDS011;7060;43.770;4.008;2022-08-01T04:04:03;1.15;;;0.90;;
13973;SDS011;7060;43.770;4.008;2022-08-01T04:06:33;1.25;;;1.05;;
13973;SDS011;7060;43.770;4.008;2022-08-01T04:09:06;1.42;;;0.80;;
13973;SDS011;7060;43.770;4.008;2022-08-01T04:11:39;1.00;;;0.90;;
13973;SDS011;7060;43.770;4.008;2022-08-01T04:14:08;3.15;;;1.08;;
13973;SDS011;7060;43.770;4.008;2022-08-01T04:16:37;1.15;;;0.80;;
13973;SDS011;7060;43.770;4.008;2022-08-01T04:19:08;1.42;;;0.90;;
13973;SDS011;7060;43.770;4.008;2022-08-01T04:21:37;1.95;;;1.00;;
13973;SDS011;7060;43.770;4.008;2022-08-01T04:24:07;2.35;;;1.08;;
13973;SDS011;7060;43.770;4.008;2022-08-01T04:26:41;2.25;;;1.00;;
13973;SDS011;7060;43.770;4.008;2022-08-01T04:29:13;3.27;;;1.20;;
13973;SDS011;7060;43.770;4.008;2022-08-01T04:31:46;1.63;;;0.90;;
13973;SDS011;7060;43.770;4.008;2022-08-01T04:34:20;3.97;;;0.80;;
13973;SDS011;7060;43.770;4.008;2022-08-01T04:36:52;2.53;;;0.90;;
13973;SDS011;7060;43.770;4.008;2022-08-01T04:39:23;1.20;;;1.10;;
13973;SDS011;7060;43.770;4.008;2022-08-01T04:41:55;1.05;;;0.93;;
13973;SDS011;7060;43.770;4.008;2022-08-01T04:44:25;2.50;;;0.90;;
13973;SDS011;7060;43.770;4.008;2022-08-01T04:46:58;1.37;;;1.10;;
13973;SDS011;7060;43.770;4.008;2022-08-01T04:49:30;1.13;;;0.88;;
13973;SDS011;7060;43.770;4.008;2022-08-01T04:52:14;2.20;;;1.05;;
13973;SDS011;7060;43.770;4.008;2022-08-01T04:54:50;2.03;;;0.90;;
13973;SDS011;7060;43.770;4.008;2022-08-01T04:57:19;1.20;;;0.73;;
13973;SDS011;7060;43.770;4.008;2022-08-01T04:59:48;0.90;;;0.73;;
13973;SDS011;7060;43.770;4.008;2022-08-01T05:02:23;1.15;;;0.82;;
13973;SDS011;7060;43.770;4.008;2022-08-01T05:04:56;2.55;;;0.80;;
13973;SDS011;7060;43.770;4.008;2022-08-01T05:07:25;2.35;;;1.00;;
13973;SDS011;7060;43.770;4.008;2022-08-01T05:09:54;1.47;;;0.87;;
13973;SDS011;7060;43.770;4.008;2022-08-01T05:12:23;1.17;;;0.90;;
13973;SDS011;7060;43.770;4.008;2022-08-01T05:14:52;1.05;;;0.90;;
13973;SDS011;7060;43.770;4.008;2022-08-01T05:17:21;1.63;;;1.13;;
13973;SDS011;7060;43.770;4.008;2022-08-01T05:19:50;1.75;;;0.80;;
13973;SDS011;7060;43.770;4.008;2022-08-01T05:22:20;4.57;;;1.03;;
13973;SDS011;7060;43.770;4.008;2022-08-01T05:24:52;2.47;;;1.20;;
13973;SDS011;7060;43.770;4.008;2022-08-01T05:27:23;2.33;;;0.90;;
13973;SDS011;7060;43.770;4.008;2022-08-01T05:29:54;1.40;;;0.90;;
13973;SDS011;7060;43.770;4.008;2022-08-01T05:32:23;1.95;;;0.93;;
13973;SDS011;7060;43.770;4.008;2022-08-01T05:34:52;1.30;;;1.05;;
13973;SDS011;7060;43.770;4.008;2022-08-01T05:37:22;2.22;;;0.82;;
13973;SDS011;7060;43.770;4.008;2022-08-01T05:39:51;2.90;;;1.10;;
13973;SDS011;7060;43.770;4.008;2022-08-01T05:42:20;2.65;;;1.10;;
13973;SDS011;7060;43.770;4.008;2022-08-01T05:44:49;1.23;;;0.80;;
13973;SDS011;7060;43.770;4.008;2022-08-01T05:47:18;2.53;;;1.08;;
13973;SDS011;7060;43.770;4.008;2022-08-01T05:49:47;2.88;;;0.90;;
13973;SDS011;7060;43.770;4.008;2022-08-01T05:52:16;1.23;;;0.90;;
13973;SDS011;7060;43.770;4.008;2022-08-01T05:54:47;5.30;;;1.17;;
13973;SDS011;7060;43.770;4.008;2022-08-01T05:57:16;1.20;;;1.00;;
13973;SDS011;7060;43.770;4.008;2022-08-01T05:59:45;3.05;;;1.13;;
13973;SDS011;7060;43.770;4.008;2022-08-01T06:02:14;9.48;;;1.10;;
13973;SDS011;7060;43.770;4.008;2022-08-01T06:04:43;1.70;;;1.23;;
13973;SDS011;7060;43.770;4.008;2022-08-01T06:07:12;2.80;;;0.90;;
13973;SDS011;7060;43.770;4.008;2022-08-01T06:09:41;3.40;;;1.30;;
13973;SDS011;7060;43.770;4.008;2022-08-01T06:12:11;3.60;;;1.00;;
13973;SDS011;7060;43.770;4.008;2022-08-01T06:14:40;2.75;;;1.10;;
13973;SDS011;7060;43.770;4.008;2022-08-01T06:17:09;1.83;;;0.98;;
13973;SDS011;7060;43.770;4.008;2022-08-01T06:19:38;2.90;;;1.02;;
13973;SDS011;7060;43.770;4.008;2022-08-01T06:22:07;1.50;;;1.40;;
13973;SDS011;7060;43.770;4.008;2022-08-01T06:24:36;3.42;;;1.58;;
13973;SDS011;7060;43.770;4.008;2022-08-01T06:27:07;1.50;;;1.40;;
13973;SDS011;7060;43.770;4.008;2022-08-01T06:29:49;3.80;;;1.17;;
13973;SDS011;7060;43.770;4.008;2022-08-01T06:32:20;4.80;;;1.40;;
13973;SDS011;7060;43.770;4.008;2022-08-01T06:34:53;2.25;;;1.20;;
13973;SDS011;7060;43.770;4.008;2022-08-01T06:37:22;4.18;;;1.30;;
13973;SDS011;7060;43.770;4.008;2022-08-01T06:39:52;2.17;;;1.42;;
13973;SDS011;7060;43.770;4.008;2022-08-01T06:42:21;1.63;;;1.42;;
13973;SDS011;7060;43.770;4.008;2022-08-01T06:44:52;2.08;;;1.50;;
13973;SDS011;7060;43.770;4.008;2022-08-01T06:47:21;1.70;;;1.60;;
13973;SDS011;7060;43.770;4.008;2022-08-01T06:49:49;1.92;;;1.80;;
13973;SDS011;7060;43.770;4.008;2022-08-01T06:52:18;1.80;;;1.70;;
13973;SDS011;7060;43.770;4.008;2022-08-01T06:54:47;1.70;;;1.60;;
13973;SDS011;7060;43.770;4.008;2022-08-01T06:57:16;1.80;;;1.70;;
13973;SDS011;7060;43.770;4.008;2022-08-01T06:59:45;2.03;;;1.92;;
13973;SDS011;7060;43.770;4.008;2022-08-01T07:02:21;2.20;;;2.00;;
13973;SDS011;7060;43.770;4.008;2022-08-01T07:04:50;3.10;;;2.40;;
13973;SDS011;7060;43.770;4.008;2022-08-01T07:07:19;2.38;;;2.05;;
13973;SDS011;7060;43.770;4.008;2022-08-01T07:09:48;2.17;;;2.05;;
13973;SDS011;7060;43.770;4.008;2022-08-01T07:12:18;2.53;;;2.10;;
13973;SDS011;7060;43.770;4.008;2022-08-01T07:14:47;2.30;;;2.08;;
13973;SDS011;7060;43.770;4.008;2022-08-01T07:17:17;2.38;;;2.28;;
13973;SDS011;7060;43.770;4.008;2022-08-01T07:19:48;1.98;;;1.88;;
13973;SDS011;7060;43.770;4.008;2022-08-01T07:22:18;2.17;;;1.98;;
13973;SDS011;7060;43.770;4.008;2022-08-01T07:24:49;2.13;;;2.03;;
13973;SDS011;7060;43.770;4.008;2022-08-01T07:27:20;3.05;;;1.75;;
13973;SDS011;7060;43.770;4.008;2022-08-01T07:29:51;1.80;;;1.70;;
13973;SDS011;7060;43.770;4.008;2022-08-01T07:32:21;2.80;;;2.10;;
13973;SDS011;7060;43.770;4.008;2022-08-01T07:34:52;2.20;;;2.08;;
13973;SDS011;7060;43.770;4.008;2022-08-01T07:37:21;2.78;;;1.92;;
13973;SDS011;7060;43.770;4.008;2022-08-01T07:40:11;1.85;;;1.70;;
13973;SDS011;7060;43.770;4.008;2022-08-01T07:42:40;1.92;;;1.70;;
13973;SDS011;7060;43.770;4.008;2022-08-01T07:45:12;2.25;;;2.03;;
13973;SDS011;7060;43.770;4.008;2022-08-01T07:47:41;2.10;;;1.95;;
13973;SDS011;7060;43.770;4.008;2022-08-01T07:50:11;1.95;;;1.85;;
13973;SDS011;7060;43.770;4.008;2022-08-01T07:52:41;2.03;;;1.80;;
13973;SDS011;7060;43.770;4.008;2022-08-01T07:55:10;2.30;;;1.75;;
13973;SDS011;7060;43.770;4.008;2022-08-01T07:57:42;1.95;;;1.60;;
13973;SDS011;7060;43.770;4.008;2022-08-01T08:00:12;1.95;;;1.70;;
13973;SDS011;7060;43.770;4.008;2022-08-01T08:02:41;1.70;;;1.60;;
13973;SDS011;7060;43.770;4.008;2022-08-01T08:05:12;2.90;;;1.40;;
13973;SDS011;7060;43.770;4.008;2022-08-01T08:08:01;1.60;;;1.10;;
13973;SDS011;7060;43.770;4.008;2022-08-01T08:10:32;1.65;;;1.30;;
13973;SDS011;7060;43.770;4.008;2022-08-01T08:13:01;1.20;;;1.10;;
13973;SDS011;7060;43.770;4.008;2022-08-01T08:15:31;2.30;;;1.40;;
13973;SDS011;7060;43.770;4.008;2022-08-01T08:18:00;1.20;;;1.10;;
13973;SDS011;7060;43.770;4.008;2022-08-01T08:20:30;0.90;;;0.90;;
13973;SDS011;7060;43.770;4.008;2022-08-01T08:23:00;1.10;;;0.90;;
13973;SDS011;7060;43.770;4.008;2022-08-01T08:26:09;1.88;;;1.15;;
13973;SDS011;7060;43.770;4.008;2022-08-01T08:28:38;1.42;;;0.95;;
13973;SDS011;7060;43.770;4.008;2022-08-01T08:31:07;3.53;;;1.10;;
13973;SDS011;7060;43.770;4.008;2022-08-01T08:33:56;1.90;;;1.00;;
13973;SDS011;7060;43.770;4.008;2022-08-01T08:36:27;1.10;;;1.00;;
13973;SDS011;7060;43.770;4.008;2022-08-01T08:38:57;2.95;;;0.98;;
13973;SDS011;7060;43.770;4.008;2022-08-01T08:41:28;1.92;;;1.00;;
13973;SDS011;7060;43.770;4.008;2022-08-01T08:44:04;1.17;;;0.90;;
13973;SDS011;7060;43.770;4.008;2022-08-01T08:46:40;1.30;;;0.93;;
13973;SDS011;7060;43.770;4.008;2022-08-01T08:49:11;1.30;;;0.98;;
13973;SDS011;7060;43.770;4.008;2022-08-01T08:51:44;0.88;;;0.88;;
13973;SDS011;7060;43.770;4.008;2022-08-01T08:54:17;1.17;;;1.08;;
13973;SDS011;7060;43.770;4.008;2022-08-01T08:56:57;1.35;;;1.10;;
13973;SDS011;7060;43.770;4.008;2022-08-01T08:59:28;1.00;;;0.90;;
13973;SDS011;7060;43.770;4.008;2022-08-01T09:01:57;1.08;;;0.90;;
13973;SDS011;7060;43.770;4.008;2022-08-01T09:04:27;1.17;;;1.08;;
13973;SDS011;7060;43.770;4.008;2022-08-01T09:06:57;1.73;;;0.90;;
13973;SDS011;7060;43.770;4.008;2022-08-01T09:09:26;1.90;;;0.88;;
13973;SDS011;7060;43.770;4.008;2022-08-01T09:11:57;0.90;;;0.90;;
13973;SDS011;7060;43.770;4.008;2022-08-01T09:14:26;1.02;;;0.93;;
13973;SDS011;7060;43.770;4.008;2022-08-01T09:17:00;2.58;;;0.77;;
13973;SDS011;7060;43.770;4.008;2022-08-01T09:19:37;1.30;;;0.90;;
13973;SDS011;7060;43.770;4.008;2022-08-01T09:22:10;1.50;;;0.95;;
13973;SDS011;7060;43.770;4.008;2022-08-01T09:27:28;2.47;;;0.90;;
13973;SDS011;7060;43.770;4.008;2022-08-01T09:30:07;1.80;;;0.80;;
13973;SDS011;7060;43.770;4.008;2022-08-01T09:32:52;2.25;;;1.17;;
13973;SDS011;7060;43.770;4.008;2022-08-01T09:35:24;1.70;;;1.10;;
13973;SDS011;7060;43.770;4.008;2022-08-01T09:38:14;1.77;;;0.98;;
13973;SDS011;7060;43.770;4.008;2022-08-01T09:40:48;0.90;;;0.90;;
13973;SDS011;7060;43.770;4.008;2022-08-01T09:43:25;1.50;;;1.00;;
13973;SDS011;7060;43.770;4.008;2022-08-01T09:45:57;0.80;;;0.75;;
13973;SDS011;7060;43.770;4.008;2022-08-01T09:48:27;1.13;;;0.90;;
13973;SDS011;7060;43.770;4.008;2022-08-01T09:50:56;1.15;;;0.80;;
13973;SDS011;7060;43.770;4.008;2022-08-01T09:53:43;1.67;;;0.90;;
13973;SDS011;7060;43.770;4.008;2022-08-01T09:56:19;1.25;;;0.95;;
13973;SDS011;7060;43.770;4.008;2022-08-01T09:58:49;1.75;;;1.00;;
13973;SDS011;7060;43.770;4.008;2022-08-01T10:01:26;1.15;;;1.00;;
13973;SDS011;7060;43.770;4.008;2022-08-01T10:04:05;2.08;;;0.80;;
13973;SDS011;7060;43.770;4.008;2022-08-01T10:06:36;0.82;;;0.82;;
13973;SDS011;7060;43.770;4.008;2022-08-01T10:09:08;1.30;;;0.77;;
13973;SDS011;7060;43.770;4.008;2022-08-01T10:11:37;1.00;;;0.80;;
13973;SDS011;7060;43.770;4.008;2022-08-01T10:14:07;1.15;;;0.70;;
13973;SDS011;7060;43.770;4.008;2022-08-01T10:16:36;1.10;;;0.73;;
13973;SDS011;7060;43.770;4.008;2022-08-01T10:19:07;1.27;;;0.80;;
13973;SDS011;7060;43.770;4.008;2022-08-01T10:21:41;0.82;;;0.80;;
13973;SDS011;7060;43.770;4.008;2022-08-01T10:24:26;0.80;;;0.80;;
13973;SDS011;7060;43.770;4.008;2022-08-01T10:27:02;1.80;;;0.82;;
13973;SDS011;7060;43.770;4.008;2022-08-01T10:29:36;0.80;;;0.80;;
13973;SDS011;7060;43.770;4.008;2022-08-01T10:32:25;1.98;;;0.80;;
13973;SDS011;7060;43.770;4.008;2022-08-01T10:34:55;0.82;;;0.80;;
13973;SDS011;7060;43.770;4.008;2022-08-01T10:37:24;0.90;;;0.70;;
13973;SDS011;7060;43.770;4.008;2022-08-01T10:39:55;1.10;;;0.70;;
13973;SDS011;7060;43.770;4.008;2022-08-01T10:42:45;1.02;;;0.93;;
13973;SDS011;7060;43.770;4.008;2022-08-01T10:45:15;1.55;;;0.98;;
13973;SDS011;7060;43.770;4.008;2022-08-01T10:47:44;1.85;;;0.93;;
13973;SDS011;7060;43.770;4.008;2022-08-01T10:50:21;0.70;;;0.70;;
13973;SDS011;7060;43.770;4.008;2022-08-01T10:53:07;0.77;;;0.77;;
13973;SDS011;7060;43.770;4.008;2022-08-01T10:55:50;1.70;;;1.00;;
13973;SDS011;7060;43.770;4.008;2022-08-01T10:58:29;0.90;;;0.90;;
13973;SDS011;7060;43.770;4.008;2022-08-01T11:01:14;0.80;;;0.80;;
13973;SDS011;7060;43.770;4.008;2022-08-01T11:03:56;1.08;;;0.80;;
13973;SDS011;7060;43.770;4.008;2022-08-01T11:09:39;1.08;;;0.75;;
13973;SDS011;7060;43.770;4.008;2022-08-01T11:12:18;1.33;;;0.88;;
13973;SDS011;7060;43.770;4.008;2022-08-01T11:17:57;0.77;;;0.77;;
13973;SDS011;7060;43.770;4.008;2022-08-01T11:20:28;1.73;;;0.93;;
13973;SDS011;7060;43.770;4.008;2022-08-01T11:29:16;0.90;;;0.90;;
13973;SDS011;7060;43.770;4.008;2022-08-01T11:31:48;2.95;;;0.90;;
13973;SDS011;7060;43.770;4.008;2022-08-01T11:34:19;1.42;;;0.70;;
13973;SDS011;7060;43.770;4.008;2022-08-01T11:36:47;1.98;;;0.80;;
13973;SDS011;7060;43.770;4.008;2022-08-01T11:39:35;0.90;;;0.90;;
13973;SDS011;7060;43.770;4.008;2022-08-01T11:44:54;1.85;;;0.85;;
13973;SDS011;7060;43.770;4.008;2022-08-01T11:50:34;0.88;;;0.88;;
13973;SDS011;7060;43.770;4.008;2022-08-01T11:53:05;2.00;;;1.08;;
13973;SDS011;7060;43.770;4.008;2022-08-01T11:55:37;0.88;;;0.88;;
13973;SDS011;7060;43.770;4.008;2022-08-01T11:58:20;0.80;;;0.80;;
13973;SDS011;7060;43.770;4.008;2022-08-01T12:00:58;1.23;;;0.90;;
13973;SDS011;7060;43.770;4.008;2022-08-01T12:03:28;1.30;;;0.80;;
13973;SDS011;7060;43.770;4.008;2022-08-01T12:06:00;1.20;;;0.98;;
13973;SDS011;7060;43.770;4.008;2022-08-01T12:08:31;0.80;;;0.80;;
13973;SDS011;7060;43.770;4.008;2022-08-01T12:11:03;0.80;;;0.80;;
13973;SDS011;7060;43.770;4.008;2022-08-01T12:13:40;0.80;;;0.80;;
13973;SDS011;7060;43.770;4.008;2022-08-01T12:16:11;1.13;;;0.88;;
13973;SDS011;7060;43.770;4.008;2022-08-01T12:18:41;1.23;;;0.90;;
13973;SDS011;7060;43.770;4.008;2022-08-01T12:21:11;1.55;;;0.80;;
13973;SDS011;7060;43.770;4.008;2022-08-01T12:23:39;0.88;;;0.88;;
13973;SDS011;7060;43.770;4.008;2022-08-01T12:26:09;1.00;;;0.90;;
13973;SDS011;7060;43.770;4.008;2022-08-01T12:28:57;0.85;;;0.85;;
13973;SDS011;7060;43.770;4.008;2022-08-01T12:31:34;0.80;;;0.80;;
13973;SDS011;7060;43.770;4.008;2022-08-01T12:36:55;0.80;;;0.80;;
13973;SDS011;7060;43.770;4.008;2022-08-01T12:39:32;0.98;;;0.90;;
13973;SDS011;7060;43.770;4.008;2022-08-01T12:42:06;1.33;;;0.80;;
13973;SDS011;7060;43.770;4.008;2022-08-01T12:44:37;1.00;;;0.90;;
13973;SDS011;7060;43.770;4.008;2022-08-01T12:47:08;1.08;;;0.93;;
13973;SDS011;7060;43.770;4.008;2022-08-01T12:49:39;1.08;;;1.00;;
13973;SDS011;7060;43.770;4.008;2022-08-01T12:52:11;0.90;;;0.90;;
13973;SDS011;7060;43.770;4.008;2022-08-01T12:57:36;1.00;;;0.90;;
13973;SDS011;7060;43.770;4.008;2022-08-01T13:00:09;1.00;;;0.90;;
13973;SDS011;7060;43.770;4.008;2022-08-01T13:02:41;1.17;;;0.90;;
13973;SDS011;7060;43.770;4.008;2022-08-01T13:05:11;0.82;;;0.82;;
13973;SDS011;7060;43.770;4.008;2022-08-01T13:07:43;0.90;;;0.90;;
13973;SDS011;7060;43.770;4.008;2022-08-01T13:10:14;0.93;;;0.90;;
13973;SDS011;7060;43.770;4.008;2022-08-01T13:12:52;0.77;;;0.77;;
13973;SDS011;7060;43.770;4.008;2022-08-01T13:15:24;2.35;;;1.00;;
13973;SDS011;7060;43.770;4.008;2022-08-01T13:17:59;0.77;;;0.77;;
13973;SDS011;7060;43.770;4.008;2022-08-01T13:20:31;1.02;;;0.93;;
13973;SDS011;7060;43.770;4.008;2022-08-01T13:23:12;0.90;;;0.90;;
13973;SDS011;7060;43.770;4.008;2022-08-01T13:26:02;0.80;;;0.80;;
13973;SDS011;7060;43.770;4.008;2022-08-01T13:28:31;2.22;;;0.90;;
13973;SDS011;7060;43.770;4.008;2022-08-01T13:31:04;0.90;;;0.90;;
13973;SDS011;7060;43.770;4.008;2022-08-01T13:33:42;1.10;;;1.00;;
13973;SDS011;7060;43.770;4.008;2022-08-01T13:36:19;1.45;;;1.00;;
13973;SDS011;7060;43.770;4.008;2022-08-01T13:38:54;0.95;;;0.95;;
13973;SDS011;7060;43.770;4.008;2022-08-01T13:41:40;4.45;;;1.23;;
13973;SDS011;7060;43.770;4.008;2022-08-01T13:44:09;1.10;;;0.98;;
13973;SDS011;7060;43.770;4.008;2022-08-01T13:46:39;0.98;;;0.95;;
13973;SDS011;7060;43.770;4.008;2022-08-01T13:49:18;0.90;;;0.90;;
13973;SDS011;7060;43.770;4.008;2022-08-01T13:51:48;1.20;;;1.10;;
13973;SDS011;7060;43.770;4.008;2022-08-01T13:54:18;2.58;;;1.10;;
13973;SDS011;7060;43.770;4.008;2022-08-01T13:56:47;1.90;;;1.05;;
13973;SDS011;7060;43.770;4.008;2022-08-01T13:59:16;1.00;;;0.90;;
13973;SDS011;7060;43.770;4.008;2022-08-01T14:01:45;1.00;;;1.00;;
13973;SDS011;7060;43.770;4.008;2022-08-01T14:04:14;1.40;;;1.00;;
13973;SDS011;7060;43.770;4.008;2022-08-01T14:06:45;1.20;;;1.10;;
13973;SDS011;7060;43.770;4.008;2022-08-01T14:09:14;0.95;;;0.95;;
13973;SDS011;7060;43.770;4.008;2022-08-01T14:11:50;1.80;;;1.00;;
13973;SDS011;7060;43.770;4.008;2022-08-01T14:14:19;0.90;;;0.90;;
13973;SDS011;7060;43.770;4.008;2022-08-01T14:16:48;1.92;;;1.00;;
13973;SDS011;7060;43.770;4.008;2022-08-01T14:19:16;3.75;;;1.10;;
13973;SDS011;7060;43.770;4.008;2022-08-01T14:22:06;4.25;;;1.00;;
13973;SDS011;7060;43.770;4.008;2022-08-01T14:24:35;2.40;;;1.00;;
13973;SDS011;7060;43.770;4.008;2022-08-01T14:27:06;1.90;;;1.00;;
13973;SDS011;7060;43.770;4.008;2022-08-01T14:29:36;0.90;;;0.90;;
13973;SDS011;7060;43.770;4.008;2022-08-01T14:32:25;1.48;;;1.10;;
13973;SDS011;7060;43.770;4.008;2022-08-01T14:34:54;1.27;;;0.90;;
13973;SDS011;7060;43.770;4.008;2022-08-01T14:37:25;0.93;;;0.90;;
13973;SDS011;7060;43.770;4.008;2022-08-01T14:39:59;0.98;;;0.93;;
13973;SDS011;7060;43.770;4.008;2022-08-01T14:42:33;1.10;;;1.00;;
13973;SDS011;7060;43.770;4.008;2022-08-01T14:45:02;1.23;;;1.00;;
13973;SDS011;7060;43.770;4.008;2022-08-01T14:47:31;4.97;;;1.00;;
13973;SDS011;7060;43.770;4.008;2022-08-01T14:50:00;0.90;;;0.90;;
13973;SDS011;7060;43.770;4.008;2022-08-01T14:52:31;2.83;;;1.10;;
13973;SDS011;7060;43.770;4.008;2022-08-01T14:55:00;0.82;;;0.82;;
13973;SDS011;7060;43.770;4.008;2022-08-01T14:57:29;1.20;;;1.10;;
13973;SDS011;7060;43.770;4.008;2022-08-01T14:59:58;1.00;;;0.90;;
13973;SDS011;7060;43.770;4.008;2022-08-01T15:02:27;1.85;;;1.00;;
13973;SDS011;7060;43.770;4.008;2022-08-01T15:04:56;0.90;;;0.90;;
13973;SDS011;7060;43.770;4.008;2022-08-01T15:07:25;1.10;;;0.98;;
13973;SDS011;7060;43.770;4.008;2022-08-01T15:09:55;1.20;;;1.10;;
13973;SDS011;7060;43.770;4.008;2022-08-01T15:12:24;1.75;;;1.10;;
13973;SDS011;7060;43.770;4.008;2022-08-01T15:15:13;1.30;;;1.20;;
13973;SDS011;7060;43.770;4.008;2022-08-01T15:17:41;2.08;;;1.30;;
13973;SDS011;7060;43.770;4.008;2022-08-01T15:20:10;1.30;;;1.20;;
13973;SDS011;7060;43.770;4.008;2022-08-01T15:22:39;1.40;;;1.30;;
13973;SDS011;7060;43.770;4.008;2022-08-01T15:25:09;2.90;;;1.58;;
13973;SDS011;7060;43.770;4.008;2022-08-01T15:27:38;2.08;;;1.50;;
13973;SDS011;7060;43.770;4.008;2022-08-01T15:30:07;1.45;;;1.35;;
13973;SDS011;7060;43.770;4.008;2022-08-01T15:32:37;2.70;;;1.50;;
13973;SDS011;7060;43.770;4.008;2022-08-01T15:35:06;2.08;;;1.25;;
13973;SDS011;7060;43.770;4.008;2022-08-01T15:37:37;1.63;;;1.17;;
13973;SDS011;7060;43.770;4.008;2022-08-01T15:40:11;1.38;;;1.27;;
13973;SDS011;7060;43.770;4.008;2022-08-01T15:42:40;1.58;;;1.30;;
13973;SDS011;7060;43.770;4.008;2022-08-01T15:45:09;1.23;;;1.20;;
13973;SDS011;7060;43.770;4.008;2022-08-01T15:48:00;2.75;;;1.30;;
13973;SDS011;7060;43.770;4.008;2022-08-01T15:50:28;1.95;;;1.30;;
13973;SDS011;7060;43.770;4.008;2022-08-01T15:52:57;1.67;;;1.40;;
13973;SDS011;7060;43.770;4.008;2022-08-01T15:55:27;2.00;;;1.40;;
13973;SDS011;7060;43.770;4.008;2022-08-01T15:57:56;2.15;;;1.50;;
13973;SDS011;7060;43.770;4.008;2022-08-01T16:00:25;1.60;;;1.50;;
13973;SDS011;7060;43.770;4.008;2022-08-01T16:03:05;2.45;;;1.20;;